Time;durP1;ratioP1;P1;durP2;ratioP2;P2;SDS_P1;SDS_P2;PMS_P1;PMS_P2;Temp;Humidity;BMP_temperature;BMP_pressure;BME280_temperature;BME280_humidity;BME280_pressure;Samples;Min_cycle;Max_cycle;Signal;HPM_P1;HPM_P2
2021/06/12 00:00:07;;;;;;;8.68;5.40;;;486.50;2380.80;;;;;;4859577;29;20032;-76
2021/06/12 00:02:33;;;;;;;7.47;5.32;;;486.60;2380.80;;;;;;4850448;29;20069;-76
2021/06/12 00:04:59;;;;;;;8.90;6.07;;;486.70;2380.80;;;;;;4860926;29;20033;-77
2021/06/12 00:07:24;;;;;;;7.03;5.65;;;486.50;2380.80;;;;;;4850771;29;20029;-77
2021/06/12 00:09:50;;;;;;;6.30;5.57;;;486.40;2380.80;;;;;;4859021;29;20109;-77
2021/06/12 00:12:17;;;;;;;13.05;6.80;;;461.70;2380.80;;;;;;4860299;29;20375;-76
2021/06/12 00:14:43;;;;;;;11.55;6.03;;;461.70;2380.80;;;;;;4841397;29;20057;-76
2021/06/12 00:17:09;;;;;;;8.02;6.13;;;461.70;2380.80;;;;;;4858506;29;20076;-75
2021/06/12 00:19:34;;;;;;;8.63;5.97;;;461.70;2380.80;;;;;;4839105;29;20033;-76
2021/06/12 00:22:01;;;;;;;10.25;6.78;;;461.60;2380.80;;;;;;4843196;29;20061;-76
2021/06/12 00:24:26;;;;;;;10.10;5.97;;;461.60;2380.80;;;;;;4843704;29;20068;-75
2021/06/12 00:26:52;;;;;;;7.97;6.55;;;461.50;2380.80;;;;;;4860009;29;20057;-75
2021/06/12 00:29:18;;;;;;;9.85;6.07;;;461.50;2380.80;;;;;;4860303;29;20030;-76
2021/06/12 00:31:44;;;;;;;8.88;6.78;;;461.40;2380.80;;;;;;4860229;29;20806;-76
2021/06/12 00:34:09;;;;;;;8.60;6.53;;;461.40;2380.80;;;;;;4860602;29;20407;-76
2021/06/12 00:36:35;;;;;;;12.43;6.65;;;461.40;2380.80;;;;;;4860175;29;20057;-76
2021/06/12 00:39:01;;;;;;;10.38;6.15;;;461.40;2380.80;;;;;;4859699;29;20502;-76
2021/06/12 00:41:27;;;;;;;7.55;5.80;;;461.50;2380.80;;;;;;4860335;29;20049;-76
2021/06/12 00:43:53;;;;;;;10.40;6.20;;;461.50;2380.80;;;;;;4860168;29;20025;-76
2021/06/12 00:46:19;;;;;;;12.48;6.07;;;461.60;2380.80;;;;;;4859846;29;20062;-76
2021/06/12 00:48:45;;;;;;;7.65;6.00;;;461.50;2380.80;;;;;;4859955;29;20077;-76
2021/06/12 00:51:11;;;;;;;11.20;6.78;;;461.50;2380.80;;;;;;4860232;29;20440;-76
2021/06/12 00:53:41;;;;;;;8.68;5.93;;;461.60;2380.80;;;;;;4859910;29;20029;-75
2021/06/12 00:56:13;;;;;;;14.20;6.38;;;461.50;2380.80;;;;;;4860305;29;20029;-76
2021/06/12 00:58:44;;;;;;;10.70;6.03;;;461.50;2380.80;;;;;;4868678;29;20100;-76
2021/06/12 01:01:12;;;;;;;9.15;5.85;;;461.50;2380.80;;;;;;4852491;29;20036;-76
2021/06/12 01:03:40;;;;;;;8.93;6.70;;;461.30;2380.80;;;;;;4852962;29;20105;-76
2021/06/12 01:06:08;;;;;;;10.02;7.05;;;461.30;2380.80;;;;;;4843368;29;20030;-75
2021/06/12 01:08:34;;;;;;;9.63;5.97;;;461.20;2380.80;;;;;;4860073;29;20034;-76
2021/06/12 01:11:00;;;;;;;9.18;6.47;;;461.20;2380.80;;;;;;4848423;29;20033;-76
2021/06/12 01:13:44;;;;;;;10.23;6.68;;;461.10;2380.80;;;;;;4860014;29;20025;-76
2021/06/12 01:16:16;;;;;;;8.32;6.10;;;461.20;2380.80;;;;;;4859351;29;20035;-76
2021/06/12 01:18:44;;;;;;;7.22;6.22;;;461.20;2380.80;;;;;;4848424;29;20028;-76
2021/06/12 01:21:10;;;;;;;10.90;6.93;;;461.30;2380.80;;;;;;4842958;29;20033;-76
2021/06/12 01:24:13;;;;;;;9.38;6.93;;;461.40;2380.80;;;;;;4848509;29;20077;-75
2021/06/12 01:26:54;;;;;;;9.98;6.80;;;461.30;2380.80;;;;;;4857151;29;20065;-75
2021/06/12 01:29:35;;;;;;;7.78;5.95;;;461.30;2380.80;;;;;;4851247;29;20026;-76
2021/06/12 01:32:03;;;;;;;11.40;6.90;;;461.40;2380.80;;;;;;4842887;29;20403;-75
2021/06/12 01:34:29;;;;;;;9.00;6.50;;;461.30;2380.80;;;;;;4859315;29;20090;-75
2021/06/12 01:36:56;;;;;;;7.43;5.63;;;461.40;2380.80;;;;;;4857203;29;20041;-75
2021/06/12 01:39:26;;;;;;;8.43;6.35;;;461.40;2380.80;;;;;;4854990;29;20072;-76
2021/06/12 01:41:56;;;;;;;11.40;7.65;;;461.30;2380.80;;;;;;4859213;29;20057;-76
2021/06/12 01:44:22;;;;;;;10.05;6.93;;;461.20;2380.80;;;;;;4859488;29;20021;-75
2021/06/12 01:46:48;;;;;;;8.88;6.55;;;461.30;2380.80;;;;;;4858948;29;20053;-75
2021/06/12 01:49:15;;;;;;;7.50;6.22;;;461.30;2380.80;;;;;;4835048;29;20026;-75
2021/06/12 01:51:42;;;;;;;7.85;6.57;;;461.20;2380.80;;;;;;4841779;29;20133;-75
2021/06/12 01:54:10;;;;;;;8.02;7.10;;;461.40;2380.80;;;;;;4859885;29;20104;-75
2021/06/12 01:56:36;;;;;;;10.52;7.05;;;461.20;2380.80;;;;;;4836039;29;20076;-75
2021/06/12 01:59:03;;;;;;;6.80;5.85;;;461.00;2380.80;;;;;;4861204;29;20033;-75
2021/06/12 02:01:29;;;;;;;8.80;7.03;;;461.00;2380.80;;;;;;4877667;29;20033;-75
2021/06/12 02:03:57;;;;;;;9.70;6.47;;;460.80;2380.80;;;;;;4852926;29;20053;-75
2021/06/12 02:06:23;;;;;;;9.98;6.90;;;460.80;2380.80;;;;;;4873716;29;20156;-75
2021/06/12 02:08:50;;;;;;;9.13;6.93;;;460.80;2380.80;;;;;;4843300;29;20090;-75
2021/06/12 02:11:18;;;;;;;10.20;6.72;;;460.80;2380.80;;;;;;4852170;29;20480;-75
2021/06/12 02:13:47;;;;;;;9.55;6.18;;;436.00;2355.20;;;;;;4861178;29;20184;-75
2021/06/12 02:16:13;;;;;;;8.75;7.45;;;436.00;2355.20;;;;;;4851479;29;20038;-75
2021/06/12 02:18:44;;;;;;;7.65;6.55;;;435.90;2355.20;;;;;;4876352;29;20025;-76
2021/06/12 02:21:11;;;;;;;9.68;6.47;;;435.90;2355.20;;;;;;4861373;29;20029;-76
2021/06/12 02:23:37;;;;;;;8.13;6.07;;;435.90;2355.20;;;;;;4869679;29;20030;-76
2021/06/12 02:26:07;;;;;;;9.35;7.40;;;436.00;2355.20;;;;;;4843910;29;20029;-76
2021/06/12 02:28:34;;;;;;;9.95;7.53;;;436.00;2355.20;;;;;;4878149;29;20156;-76
2021/06/12 02:31:07;;;;;;;7.97;6.20;;;436.10;2355.20;;;;;;4857021;29;20040;-76
2021/06/12 02:33:36;;;;;;;9.35;5.82;;;460.80;2380.80;;;;;;4864149;29;20056;-76
2021/06/12 02:36:02;;;;;;;9.52;7.57;;;460.80;2380.80;;;;;;4880754;29;20077;-76
2021/06/12 02:38:29;;;;;;;10.20;6.88;;;460.80;2380.80;;;;;;4880986;29;20112;-77
2021/06/12 02:40:56;;;;;;;8.90;7.50;;;436.10;2355.20;;;;;;4864704;29;20132;-76
2021/06/12 02:43:22;;;;;;;9.18;6.80;;;436.10;2355.20;;;;;;4856817;29;20101;-76
2021/06/12 02:45:48;;;;;;;10.65;7.93;;;436.00;2355.20;;;;;;4853473;29;20140;-76
2021/06/12 02:48:17;;;;;;;10.13;7.25;;;436.00;2355.20;;;;;;4864524;29;20486;-76
2021/06/12 02:50:45;;;;;;;9.68;8.02;;;436.00;2355.20;;;;;;4864524;29;20029;-76
2021/06/12 02:53:13;;;;;;;9.18;6.28;;;435.90;2355.20;;;;;;4871729;29;20035;-76
2021/06/12 02:55:46;;;;;;;9.18;7.75;;;436.00;2355.20;;;;;;4864497;29;20035;-76
2021/06/12 02:58:15;;;;;;;8.57;6.63;;;436.00;2355.20;;;;;;4864373;29;20025;-76
2021/06/12 03:00:43;;;;;;;8.68;6.85;;;436.10;2355.20;;;;;;4864073;29;20044;-75
2021/06/12 03:03:13;;;;;;;10.98;7.53;;;436.00;2355.20;;;;;;4848059;29;20025;-76
2021/06/12 03:05:43;;;;;;;9.63;7.03;;;436.00;2355.20;;;;;;4855591;29;20036;-76
2021/06/12 03:08:09;;;;;;;10.43;6.78;;;436.00;2355.20;;;;;;4864145;29;20402;-76
2021/06/12 03:10:36;;;;;;;10.48;7.60;;;436.00;2355.20;;;;;;4864006;29;20400;-76
2021/06/12 03:13:06;;;;;;;11.77;7.65;;;436.00;2355.20;;;;;;4866067;29;20061;-76
2021/06/12 03:15:34;;;;;;;8.10;7.30;;;436.00;2355.20;;;;;;4861506;29;20037;-76
2021/06/12 03:18:00;;;;;;;8.40;6.95;;;436.00;2355.20;;;;;;4869974;29;20181;-76
2021/06/12 03:20:27;;;;;;;10.20;6.80;;;436.10;2355.20;;;;;;4845376;29;20029;-76
2021/06/12 03:22:54;;;;;;;11.60;6.90;;;460.80;2380.80;;;;;;4844833;29;20052;-76
2021/06/12 03:25:22;;;;;;;9.32;7.63;;;460.80;2380.80;;;;;;4844798;29;20026;-76
2021/06/12 03:27:48;;;;;;;9.00;7.07;;;460.80;2380.80;;;;;;4861033;29;20033;-76
2021/06/12 03:30:15;;;;;;;10.68;7.75;;;461.00;2380.80;;;;;;4859642;29;20030;-76
2021/06/12 03:32:41;;;;;;;11.98;7.80;;;461.00;2380.80;;;;;;4843847;29;20022;-76
2021/06/12 03:35:08;;;;;;;9.35;6.78;;;461.00;2380.80;;;;;;4860777;29;20038;-76
2021/06/12 03:37:35;;;;;;;8.18;6.07;;;461.10;2380.80;;;;;;4861195;29;20104;-76
2021/06/12 03:40:01;;;;;;;9.02;6.63;;;461.30;2380.80;;;;;;4860323;29;20033;-76
2021/06/12 03:42:28;;;;;;;9.48;6.25;;;461.30;2380.80;;;;;;4861357;29;20048;-76
2021/06/12 03:44:56;;;;;;;11.82;7.00;;;461.40;2380.80;;;;;;4861165;29;20042;-76
2021/06/12 03:47:23;;;;;;;8.32;6.50;;;461.30;2380.80;;;;;;4845030;29;20093;-76
2021/06/12 03:49:51;;;;;;;8.43;6.68;;;461.40;2380.80;;;;;;4856054;29;20120;-75
2021/06/12 03:52:19;;;;;;;11.65;6.95;;;461.60;2380.80;;;;;;4844379;29;20117;-76
2021/06/12 03:54:45;;;;;;;9.88;6.85;;;461.70;2380.80;;;;;;4860768;29;20036;-76
2021/06/12 03:57:11;;;;;;;7.53;5.78;;;486.40;2380.80;;;;;;4861325;29;20112;-76
2021/06/12 03:59:36;;;;;;;7.75;6.10;;;486.60;2380.80;;;;;;4877099;29;20104;-76
2021/06/12 04:02:02;;;;;;;9.05;6.45;;;486.40;2380.80;;;;;;4851464;29;20026;-75
2021/06/12 04:04:28;;;;;;;9.70;7.22;;;486.40;2380.80;;;;;;4878509;29;20080;-76
2021/06/12 04:06:54;;;;;;;12.50;7.53;;;486.50;2380.80;;;;;;4863019;29;20021;-76
2021/06/12 04:09:20;;;;;;;10.18;6.88;;;486.70;2380.80;;;;;;4863190;29;20498;-76
2021/06/12 04:11:46;;;;;;;12.23;7.75;;;486.90;2380.80;;;;;;4879580;29;20029;-76
2021/06/12 04:14:11;;;;;;;13.43;8.07;;;487.20;2380.80;;;;;;4879599;29;20032;-76
2021/06/12 04:16:38;;;;;;;14.15;8.98;;;487.00;2380.80;;;;;;4879520;29;20041;-76
2021/06/12 04:19:04;;;;;;;11.77;8.52;;;486.90;2380.80;;;;;;4879808;29;20021;-76
2021/06/12 04:21:29;;;;;;;16.20;8.55;;;486.80;2380.80;;;;;;4868013;29;20507;-76
2021/06/12 04:23:55;;;;;;;19.65;12.52;;;486.70;2380.80;;;;;;4853361;29;20036;-76
2021/06/12 04:26:21;;;;;;;16.75;12.07;;;486.70;2380.80;;;;;;4860826;29;20061;-76
2021/06/12 04:28:47;;;;;;;15.95;11.63;;;486.60;2380.80;;;;;;4837455;29;20499;-77
2021/06/12 04:31:13;;;;;;;15.45;9.38;;;486.50;2380.80;;;;;;4860806;29;20104;-76
2021/06/12 04:33:38;;;;;;;12.60;8.30;;;486.70;2380.80;;;;;;4854139;29;20108;-76
2021/06/12 04:36:05;;;;;;;10.20;8.23;;;486.50;2380.80;;;;;;4854221;29;20029;-76
2021/06/12 04:38:30;;;;;;;14.77;8.25;;;486.70;2380.80;;;;;;4860447;29;20036;-76
2021/06/12 04:40:56;;;;;;;17.70;8.70;;;486.70;2380.80;;;;;;4860752;29;20021;-76
2021/06/12 04:43:22;;;;;;;9.60;7.15;;;486.80;2380.80;;;;;;4843806;29;20112;-76
2021/06/12 04:45:48;;;;;;;11.23;8.10;;;487.00;2380.80;;;;;;4853670;29;20402;-76
2021/06/12 04:48:14;;;;;;;8.15;6.75;;;487.10;2380.80;;;;;;4859220;29;20039;-76
2021/06/12 04:50:40;;;;;;;13.73;9.10;;;487.00;2380.80;;;;;;4853885;29;20402;-76
2021/06/12 04:53:08;;;;;;;9.75;7.45;;;487.20;2380.80;;;;;;4842097;29;20081;-76
2021/06/12 04:55:35;;;;;;;10.52;7.93;;;487.30;2380.80;;;;;;4879062;29;20029;-77
2021/06/12 04:58:01;;;;;;;9.57;7.13;;;487.30;2380.80;;;;;;4878901;29;20014;-76
2021/06/12 05:00:28;;;;;;;11.65;8.23;;;512.10;2380.80;;;;;;4861579;29;20045;-77
2021/06/12 05:02:54;;;;;;;8.70;7.13;;;512.30;2380.80;;;;;;4860452;29;20045;-76
2021/06/12 05:05:20;;;;;;;12.32;8.20;;;512.40;2380.80;;;;;;4860232;29;20033;-76
2021/06/12 05:07:46;;;;;;;9.32;6.93;;;512.60;2380.80;;;;;;4851357;29;20034;-76
2021/06/12 05:10:11;;;;;;;11.52;7.50;;;512.60;2380.80;;;;;;4855753;29;20033;-76
2021/06/12 05:12:39;;;;;;;10.70;7.20;;;512.50;2380.80;;;;;;4856047;29;20029;-76
2021/06/12 05:15:09;;;;;;;10.57;8.57;;;512.70;2380.80;;;;;;4859872;29;20105;-76
2021/06/12 05:17:36;;;;;;;11.13;7.93;;;537.60;2406.40;;;;;;4855768;29;20025;-77
2021/06/12 05:20:04;;;;;;;11.15;8.13;;;537.90;2406.40;;;;;;4860144;29;20022;-77
2021/06/12 05:22:30;;;;;;;15.38;9.38;;;537.90;2406.40;;;;;;4851217;29;20058;-77
2021/06/12 05:24:57;;;;;;;13.80;9.82;;;537.80;2406.40;;;;;;4851296;29;20060;-77
2021/06/12 05:27:24;;;;;;;11.32;9.27;;;538.00;2406.40;;;;;;4854449;29;20407;-77
2021/06/12 05:29:49;;;;;;;10.40;7.85;;;538.10;2406.40;;;;;;4859739;29;20034;-77
2021/06/12 05:32:15;;;;;;;8.65;6.60;;;538.30;2406.40;;;;;;4843092;29;20387;-77
2021/06/12 05:34:42;;;;;;;12.70;6.80;;;563.20;2432.00;;;;;;4850600;29;20113;-77
2021/06/12 05:37:07;;;;;;;9.52;7.07;;;563.20;2432.00;;;;;;4859794;29;20026;-77
2021/06/12 05:39:33;;;;;;;10.68;7.00;;;563.30;2432.00;;;;;;4858988;29;20029;-78
2021/06/12 05:42:00;;;;;;;10.98;7.53;;;563.40;2432.00;;;;;;4855039;29;20105;-77
2021/06/12 05:44:26;;;;;;;9.05;6.65;;;563.50;2432.00;;;;;;4842800;29;20030;-77
2021/06/12 05:46:51;;;;;;;10.85;7.07;;;563.80;2432.00;;;;;;4858718;29;20106;-77
2021/06/12 05:49:18;;;;;;;12.90;8.52;;;563.80;2432.00;;;;;;4857551;29;20105;-77
2021/06/12 05:51:44;;;;;;;11.75;8.48;;;564.00;2432.00;;;;;;4842863;29;20058;-76
2021/06/12 05:54:10;;;;;;;10.60;8.75;;;564.10;2432.00;;;;;;4844379;29;20064;-76
2021/06/12 05:56:36;;;;;;;11.32;8.15;;;588.90;2432.00;;;;;;4854076;29;20389;-77
2021/06/12 05:59:02;;;;;;;8.50;7.15;;;589.10;2432.00;;;;;;4856785;29;20033;-77
2021/06/12 06:01:27;;;;;;;14.07;9.68;;;589.20;2432.00;;;;;;4843665;29;20064;-77
2021/06/12 06:03:53;;;;;;;13.57;10.60;;;589.30;2432.00;;;;;;4857656;29;20030;-78
2021/06/12 06:06:19;;;;;;;14.15;11.20;;;589.20;2432.00;;;;;;4862203;29;20049;-78
2021/06/12 06:08:45;;;;;;;12.20;10.15;;;589.70;2432.00;;;;;;4847909;29;20033;-78
2021/06/12 06:11:10;;;;;;;10.88;8.10;;;614.40;2432.00;;;;;;4862714;29;20030;-78
2021/06/12 06:13:41;;;;;;;11.55;7.93;;;589.20;2432.00;;;;;;4855934;29;20064;-78
2021/06/12 06:16:08;;;;;;;14.77;8.07;;;589.20;2432.00;;;;;;4859406;29;20128;-78
2021/06/12 06:18:36;;;;;;;16.77;9.10;;;589.10;2432.00;;;;;;4862989;29;20030;-78
2021/06/12 06:21:03;;;;;;;14.23;9.23;;;589.30;2432.00;;;;;;4858621;29;20528;-79
2021/06/12 06:23:28;;;;;;;9.13;7.18;;;589.50;2432.00;;;;;;4844635;29;20045;-82
2021/06/12 06:25:54;;;;;;;12.18;8.20;;;589.60;2432.00;;;;;;4851788;29;20041;-81
2021/06/12 06:28:20;;;;;;;10.35;7.25;;;614.50;2432.00;;;;;;4857817;29;20435;-81
2021/06/12 06:30:46;;;;;;;8.30;7.40;;;614.90;2432.00;;;;;;4856949;29;20029;-79
2021/06/12 06:33:12;;;;;;;12.88;7.80;;;615.30;2432.00;;;;;;4862806;29;20542;-77
2021/06/12 06:35:38;;;;;;;11.00;6.55;;;640.10;2432.00;;;;;;4850300;29;20037;-81
2021/06/12 06:38:03;;;;;;;9.15;6.85;;;640.30;2432.00;;;;;;4841671;29;20037;-81
2021/06/12 06:40:29;;;;;;;18.92;7.82;;;640.50;2432.00;;;;;;4852263;29;20471;-82
2021/06/12 06:42:55;;;;;;;8.23;6.15;;;640.50;2432.00;;;;;;4843199;29;20117;-83
2021/06/12 06:45:21;;;;;;;9.88;6.10;;;640.70;2406.40;;;;;;4840060;29;20058;-83
2021/06/12 06:47:48;;;;;;;10.20;5.88;;;665.80;2380.80;;;;;;4846131;29;20040;-82
2021/06/12 06:50:17;;;;;;;8.95;7.18;;;666.20;2355.20;;;;;;4845355;29;20033;-82
2021/06/12 06:52:44;;;;;;;7.00;5.40;;;666.10;2329.60;;;;;;4846434;29;20040;-81
2021/06/12 06:55:10;;;;;;;7.05;5.60;;;666.10;2278.40;;;;;;4837544;29;20484;-79
2021/06/12 06:57:36;;;;;;;7.10;5.57;;;666.50;2304.00;;;;;;4841588;29;20052;-79
2021/06/12 07:00:05;;;;;;;8.18;6.18;;;691.50;2252.80;;;;;;4855180;29;20101;-79
2021/06/12 07:02:31;;;;;;;6.10;5.18;;;691.50;2252.80;;;;;;4859348;29;20022;-79
2021/06/12 07:04:56;;;;;;;8.38;5.97;;;691.90;2201.60;;;;;;4844220;29;20029;-80
2021/06/12 07:07:22;;;;;;;8.20;5.93;;;716.80;2176.00;;;;;;4862132;29;20502;-78
2021/06/12 07:09:48;;;;;;;6.43;5.70;;;692.00;2150.40;;;;;;4850311;29;20794;-82
2021/06/12 07:12:14;;;;;;;6.60;5.55;;;691.80;2201.60;;;;;;4842839;29;20053;-80
2021/06/12 07:14:43;;;;;;;6.95;5.72;;;691.70;2201.60;;;;;;4835842;29;20069;-79
2021/06/12 07:17:09;;;;;;;6.72;5.18;;;691.70;2201.60;;;;;;4845438;29;20034;-79
2021/06/12 07:19:35;;;;;;;8.30;5.53;;;691.50;2176.00;;;;;;4862054;29;20058;-79
2021/06/12 07:22:01;;;;;;;7.47;5.63;;;691.70;2176.00;;;;;;4856797;29;20068;-79
2021/06/12 07:24:26;;;;;;;6.57;5.50;;;691.70;2201.60;;;;;;4862046;29;20029;-79
2021/06/12 07:26:52;;;;;;;8.00;6.05;;;692.00;2176.00;;;;;;4859278;29;20074;-79
2021/06/12 07:29:18;;;;;;;9.02;6.30;;;691.90;2201.60;;;;;;4860177;29;20730;-79
2021/06/12 07:31:44;;;;;;;6.00;5.22;;;692.00;2176.00;;;;;;4844755;29;20025;-79
2021/06/12 07:34:10;;;;;;;6.88;5.15;;;716.80;2150.40;;;;;;4861810;29;20507;-79
2021/06/12 07:36:37;;;;;;;9.27;4.65;;;716.90;2150.40;;;;;;4840895;29;20050;-79
2021/06/12 07:39:05;;;;;;;6.75;5.57;;;717.00;2099.20;;;;;;4857783;29;20086;-79
2021/06/12 07:41:31;;;;;;;6.18;4.90;;;717.10;2099.20;;;;;;4842063;29;20030;-80
2021/06/12 07:43:57;;;;;;;7.57;5.72;;;717.70;2073.60;;;;;;4844722;29;20029;-79
2021/06/12 07:46:24;;;;;;;6.63;5.55;;;742.60;2073.60;;;;;;4860995;29;20049;-79
2021/06/12 07:48:50;;;;;;;8.52;4.97;;;743.00;2048.00;;;;;;4844422;29;20596;-79
2021/06/12 07:51:16;;;;;;;9.35;4.82;;;743.00;1996.80;;;;;;4844631;29;20124;-78
2021/06/12 07:53:41;;;;;;;6.97;4.82;;;768.00;1945.60;;;;;;4853661;29;20681;-79
2021/06/12 07:56:07;;;;;;;8.88;5.90;;;743.20;1945.60;;;;;;4863324;29;20036;-78
2021/06/12 07:58:33;;;;;;;8.90;5.15;;;768.20;1920.00;;;;;;4864469;29;20535;-79
2021/06/12 08:00:59;;;;;;;6.60;4.15;;;768.30;1868.80;;;;;;4862215;29;20124;-79
2021/06/12 08:03:25;;;;;;;7.13;4.60;;;768.10;1868.80;;;;;;4858983;29;20484;-79
2021/06/12 08:05:51;;;;;;;9.32;5.53;;;768.40;1894.40;;;;;;4841550;29;20141;-79
2021/06/12 08:08:16;;;;;;;8.35;5.85;;;768.40;1894.40;;;;;;4858297;29;20037;-79
2021/06/12 08:10:42;;;;;;;9.10;6.20;;;768.20;1843.20;;;;;;4861181;29;20036;-80
2021/06/12 08:13:08;;;;;;;9.75;6.10;;;768.30;1843.20;;;;;;4853387;29;20030;-79
2021/06/12 08:15:34;;;;;;;11.00;6.32;;;768.30;1894.40;;;;;;4853487;29;20037;-80
2021/06/12 08:18:00;;;;;;;12.02;7.05;;;768.40;1920.00;;;;;;4859959;29;20471;-80
2021/06/12 08:20:25;;;;;;;7.70;5.82;;;793.60;1843.20;;;;;;4844469;29;20029;-79
2021/06/12 08:22:52;;;;;;;8.30;6.22;;;768.60;1843.20;;;;;;4856795;29;20065;-82
2021/06/12 08:25:18;;;;;;;10.15;6.25;;;768.60;1817.60;;;;;;4859571;29;20041;-78
2021/06/12 08:27:44;;;;;;;6.85;5.53;;;768.50;1817.60;;;;;;4856080;29;20065;-84
2021/06/12 08:30:12;;;;;;;8.25;5.47;;;768.50;1792.00;;;;;;4863593;29;20384;-82
2021/06/12 08:32:41;;;;;;;6.80;5.85;;;793.80;1766.40;;;;;;4858073;29;20029;-79
2021/06/12 08:35:07;;;;;;;9.07;5.53;;;794.00;1766.40;;;;;;4843396;29;20113;-81
2021/06/12 08:37:34;;;;;;;9.07;5.40;;;793.90;1792.00;;;;;;4859013;29;20025;-80
2021/06/12 08:40:00;;;;;;;7.47;4.40;;;794.10;1792.00;;;;;;4840852;29;20513;-81
2021/06/12 08:42:25;;;;;;;8.18;4.88;;;819.20;1740.80;;;;;;4863394;29;20097;-80
2021/06/12 08:44:54;;;;;;;6.90;4.53;;;794.20;1766.40;;;;;;4855316;29;20118;-80
2021/06/12 08:47:20;;;;;;;4.45;4.05;;;794.20;1740.80;;;;;;4855596;29;20037;-80
2021/06/12 08:49:46;;;;;;;6.25;4.15;;;819.20;1740.80;;;;;;4842958;29;20025;-80
2021/06/12 08:52:12;;;;;;;5.82;3.83;;;819.60;1689.60;;;;;;4843418;29;20479;-78
2021/06/12 08:54:41;;;;;;;6.15;3.97;;;819.40;1664.00;;;;;;4862320;29;20034;-83
2021/06/12 08:57:09;;;;;;;10.20;5.15;;;819.80;1638.40;;;;;;4857937;29;20245;-83
2021/06/12 08:59:36;;;;;;;7.68;4.35;;;819.80;1638.40;;;;;;4843145;29;20033;-82
2021/06/12 09:02:04;;;;;;;6.88;5.88;;;819.90;1664.00;;;;;;4841836;29;20041;-83
2021/06/12 09:04:46;;;;;;;5.53;4.43;;;819.80;1638.40;;;;;;4842871;29;20036;-83
2021/06/12 09:07:34;;;;;;;5.70;4.43;;;820.10;1612.80;;;;;;4840674;29;20052;-83
2021/06/12 09:10:00;;;;;;;7.03;4.25;;;819.90;1587.20;;;;;;4842284;29;20036;-83
2021/06/12 09:12:49;;;;;;;10.40;5.43;;;845.00;1587.20;;;;;;4837830;29;20077;-83
2021/06/12 09:15:18;;;;;;;14.02;5.97;;;845.20;1587.20;;;;;;4851283;29;20042;-83
2021/06/12 09:17:50;;;;;;;10.50;4.70;;;845.50;1587.20;;;;;;4839799;29;20060;-83
2021/06/12 09:20:39;;;;;;;5.53;4.25;;;845.70;1561.60;;;;;;4846286;29;20026;-85
2021/06/12 09:23:18;;;;;;;6.35;5.55;;;845.50;1536.00;;;;;;4859359;29;20550;-86
2021/06/12 09:25:48;;;;;;;8.00;4.80;;;870.40;1536.00;;;;;;4860372;29;20037;-82
2021/06/12 09:28:15;;;;;;;8.85;6.43;;;845.70;1536.00;;;;;;4842945;29;20079;-86
2021/06/12 09:30:41;;;;;;;4.25;3.65;;;845.50;1561.60;;;;;;4841627;29;20491;-86
2021/06/12 09:33:07;;;;;;;8.02;4.70;;;845.50;1536.00;;;;;;4843633;29;20064;-86
2021/06/12 09:35:36;;;;;;;8.93;7.70;;;870.40;1510.40;;;;;;4840792;29;20038;-85
2021/06/12 09:38:21;;;;;;;6.65;4.20;;;871.30;1459.20;;;;;;4840878;29;20029;-85
2021/06/12 09:40:47;;;;;;;9.70;6.18;;;870.90;1408.00;;;;;;4856342;29;20025;-83
2021/06/12 09:43:13;;;;;;;8.45;4.82;;;871.20;1433.60;;;;;;4849862;29;20061;-83
2021/06/12 09:45:39;;;;;;;7.47;3.47;;;871.30;1382.40;;;;;;4856905;29;20426;-84
2021/06/12 09:48:11;;;;;;;6.30;4.00;;;871.10;1382.40;;;;;;4825323;29;20453;-84
2021/06/12 09:50:37;;;;;;;6.65;3.80;;;870.90;1356.80;;;;;;4838120;29;20029;-84
2021/06/12 09:53:18;;;;;;;5.55;3.47;;;870.60;1305.60;;;;;;4845005;29;20037;-84
2021/06/12 09:55:45;;;;;;;4.75;3.53;;;845.50;1356.80;;;;;;4857914;29;20527;-84
2021/06/12 09:58:11;;;;;;;6.07;3.20;;;870.90;1305.60;;;;;;4843377;29;20053;-83
2021/06/12 10:00:42;;;;;;;4.72;3.05;;;871.30;1254.40;;;;;;4834237;29;20573;-84
2021/06/12 10:03:31;;;;;;;4.22;3.20;;;896.00;1254.40;;;;;;4845293;29;20737;-83
2021/06/12 10:06:14;;;;;;;7.03;6.05;;;896.20;1228.80;;;;;;4851188;29;20414;-82
2021/06/12 10:08:45;;;;;;;6.00;4.03;;;896.30;1254.40;;;;;;4856114;29;20483;-83
2021/06/12 10:11:13;;;;;;;5.40;3.90;;;896.40;1203.20;;;;;;4843339;29;20510;-83
2021/06/12 10:13:42;;;;;;;5.07;3.97;;;896.30;1228.80;;;;;;4863555;29;20021;-81
2021/06/12 10:16:11;;;;;;;6.28;3.50;;;896.90;1203.20;;;;;;4858825;29;20041;-82
2021/06/12 10:18:40;;;;;;;5.57;3.70;;;921.60;1203.20;;;;;;4840978;29;20779;-82
2021/06/12 10:21:10;;;;;;;4.97;3.25;;;922.10;1177.60;;;;;;4842517;29;20030;-82
2021/06/12 10:23:40;;;;;;;25.48;9.25;;;922.40;1177.60;;;;;;4858780;29;20041;-82
2021/06/12 10:26:08;;;;;;;5.38;3.40;;;921.80;1228.80;;;;;;4839247;29;20040;-82
2021/06/12 10:28:34;;;;;;;4.85;2.95;;;896.90;1152.00;;;;;;4858133;29;20521;-79
2021/06/12 10:31:09;;;;;;;3.63;3.10;;;896.70;1126.40;;;;;;4840963;29;20041;-78
2021/06/12 10:33:35;;;;;;;5.18;3.20;;;896.40;1126.40;;;;;;4855094;29;20018;-78
2021/06/12 10:36:11;;;;;;;4.45;3.35;;;896.10;1126.40;;;;;;4849414;29;20093;-82
2021/06/12 10:38:37;;;;;;;5.40;4.13;;;871.10;1203.20;;;;;;4841683;29;20037;-79
2021/06/12 10:41:29;;;;;;;4.20;3.67;;;871.20;1177.60;;;;;;4853546;29;20498;-79
2021/06/12 10:43:58;;;;;;;6.75;3.72;;;896.30;1177.60;;;;;;4837816;29;20810;-79
2021/06/12 10:46:28;;;;;;;10.70;5.68;;;896.00;1177.60;;;;;;4837145;29;20065;-81
2021/06/12 10:48:59;;;;;;;5.65;4.38;;;845.40;1280.00;;;;;;4845501;29;20034;-79
2021/06/12 10:51:25;;;;;;;4.82;3.42;;;845.30;1254.40;;;;;;4845370;29;20037;-82
2021/06/12 10:54:09;;;;;;;7.70;5.40;;;845.70;1254.40;;;;;;4845456;29;20036;-80
2021/06/12 10:56:43;;;;;;;5.75;3.75;;;870.90;1254.40;;;;;;4841139;29;20029;-81
2021/06/12 10:59:12;;;;;;;5.00;3.72;;;871.30;1228.80;;;;;;4859869;29;20033;-79
2021/06/12 11:02:04;;;;;;;5.22;4.00;;;870.50;1280.00;;;;;;4862504;29;20399;-79
2021/06/12 11:04:56;;;;;;;7.03;3.70;;;870.50;1280.00;;;;;;4843951;29;20113;-79
2021/06/12 11:07:27;;;;;;;6.05;3.30;;;871.10;1280.00;;;;;;4858106;29;20045;-81
2021/06/12 11:10:13;;;;;;;5.72;3.63;;;871.20;1280.00;;;;;;4844106;29;20038;-79
2021/06/12 11:12:44;;;;;;;7.40;4.07;;;870.60;1305.60;;;;;;4805283;29;20038;-76
2021/06/12 11:15:17;;;;;;;6.63;3.53;;;871.30;1305.60;;;;;;4806609;29;20275;-78
2021/06/12 11:17:47;;;;;;;4.68;3.92;;;845.30;1382.40;;;;;;4807216;29;20038;-77
2021/06/12 11:20:14;;;;;;;6.90;3.90;;;819.90;1382.40;;;;;;4820140;29;20073;-75
2021/06/12 11:22:50;;;;;;;4.93;3.72;;;819.20;1433.60;;;;;;4822266;29;20512;-75
2021/06/12 11:25:17;;;;;;;5.03;3.40;;;820.00;1382.40;;;;;;4819254;29;20034;-75
2021/06/12 11:27:43;;;;;;;3.83;3.17;;;845.50;1382.40;;;;;;4821823;29;20294;-75
2021/06/12 11:30:18;;;;;;;4.80;3.55;;;870.80;1331.20;;;;;;4822255;29;20408;-75
2021/06/12 11:33:04;;;;;;;4.32;3.15;;;871.20;1305.60;;;;;;4822391;29;20034;-75
2021/06/12 11:35:48;;;;;;;;;;;896.20;1254.40;;;;;;4816569;29;20485;-75
2021/06/12 11:38:17;;;;;;;4.38;3.72;;;896.50;1203.20;;;;;;4805850;29;19948;-75
2021/06/12 11:41:13;;;;;;;4.68;3.78;;;896.50;1203.20;;;;;;4821831;29;20026;-75
2021/06/12 11:43:49;;;;;;;10.52;3.92;;;871.20;1228.80;;;;;;4815858;29;20045;-74
2021/06/12 11:46:21;;;;;;;6.22;3.42;;;871.10;1228.80;;;;;;4818306;29;20063;-74
2021/06/12 11:48:50;;;;;;;4.30;3.25;;;845.70;1254.40;;;;;;4809206;29;20073;-74
2021/06/12 11:51:31;;;;;;;6.50;3.22;;;845.50;1254.40;;;;;;4854780;29;20033;-75
2021/06/12 11:54:04;;;;;;;4.20;3.80;;;870.40;1254.40;;;;;;4856414;29;20032;-74
2021/06/12 11:57:00;;;;;;;4.47;3.30;;;870.60;1280.00;;;;;;4852424;29;20036;-73
2021/06/12 11:59:28;;;;;;;4.30;2.92;;;896.50;1126.40;;;;;;4860138;29;20486;-75
2021/06/12 12:01:58;;;;;;;5.40;3.17;;;922.00;1024.00;;;;;;4857133;29;20033;-75
2021/06/12 12:04:31;;;;;;;6.63;3.25;;;922.40;1049.60;;;;;;4840224;29;20045;-75
2021/06/12 12:06:57;;;;;;;3.63;3.10;;;896.80;1075.20;;;;;;4857684;29;20116;-75
2021/06/12 12:09:31;;;;;;;11.38;4.75;;;870.60;1177.60;;;;;;4858840;29;20434;-75
2021/06/12 12:12:05;;;;;;;6.82;3.28;;;870.90;1177.60;;;;;;4841590;29;20038;-75
2021/06/12 12:14:40;;;;;;;4.57;3.15;;;896.30;1126.40;;;;;;4841625;29;20037;-75
2021/06/12 12:17:19;;;;;;;7.97;3.90;;;896.90;1100.80;;;;;;4834536;29;20074;-75
2021/06/12 12:19:45;;;;;;;3.95;3.08;;;896.10;1126.40;;;;;;4857984;29;20017;-76